sensor_id;sensor_type;location;lat;lon;timestamp;pressure;altitude;pressure_sealevel;temperature;humidity
9281;BME280;4679;47.966;7.958;2022-07-18T06:08:17;97810.50;;;19.68;50.92
9281;BME280;4679;47.966;7.958;2022-07-18T06:10:20;97807.69;;;19.78;50.67
9281;BME280;4679;47.966;7.958;2022-07-18T06:12:22;97803.91;;;19.79;50.73
9281;BME280;4679;47.966;7.958;2022-07-18T06:14:23;97797.06;;;19.87;50.86
9281;BME280;4679;47.966;7.958;2022-07-18T06:16:25;97802.41;;;19.92;50.70
9281;BME280;4679;47.966;7.958;2022-07-18T06:18:27;97802.81;;;20.04;50.55
9281;BME280;4679;47.966;7.958;2022-07-18T06:20:29;97794.41;;;20.11;50.41
9281;BME280;4679;47.966;7.958;2022-07-18T06:22:31;97789.97;;;20.20;50.38
9281;BME280;4679;47.966;7.958;2022-07-18T06:24:34;97800.03;;;20.33;50.19
9281;BME280;4679;47.966;7.958;2022-07-18T06:26:36;97794.25;;;20.45;49.93
9281;BME280;4679;47.966;7.958;2022-07-18T06:28:37;97790.38;;;20.51;49.93
9281;BME280;4679;47.966;7.958;2022-07-18T06:30:39;97792.16;;;20.60;49.77
9281;BME280;4679;47.966;7.958;2022-07-18T06:32:41;97788.78;;;20.68;49.43
9281;BME280;4679;47.966;7.958;2022-07-18T06:34:42;97789.75;;;20.78;49.67
9281;BME280;4679;47.966;7.958;2022-07-18T06:36:44;97790.69;;;20.87;49.39
9281;BME280;4679;47.966;7.958;2022-07-18T06:38:46;97792.63;;;21.00;49.33
9281;BME280;4679;47.966;7.958;2022-07-18T06:40:49;97786.47;;;21.13;48.98
9281;BME280;4679;47.966;7.958;2022-07-18T06:42:51;97789.63;;;21.20;48.69
9281;BME280;4679;47.966;7.958;2022-07-18T06:44:53;97792.44;;;21.29;48.79
9281;BME280;4679;47.966;7.958;2022-07-18T06:46:54;97793.47;;;21.33;48.72
9281;BME280;4679;47.966;7.958;2022-07-18T06:48:57;97794.97;;;21.39;48.94
9281;BME280;4679;47.966;7.958;2022-07-18T06:50:59;97794.00;;;21.49;48.66
9281;BME280;4679;47.966;7.958;2022-07-18T06:53:02;97788.13;;;21.60;48.23
9281;BME280;4679;47.966;7.958;2022-07-18T06:55:04;97795.34;;;21.65;48.61
9281;BME280;4679;47.966;7.958;2022-07-18T06:57:07;97792.53;;;21.70;48.49
9281;BME280;4679;47.966;7.958;2022-07-18T06:59:09;97794.34;;;21.74;48.17
9281;BME280;4679;47.966;7.958;2022-07-18T07:01:11;97792.34;;;21.80;48.04
9281;BME280;4679;47.966;7.958;2022-07-18T07:03:13;97799.53;;;21.85;47.81
9281;BME280;4679;47.966;7.958;2022-07-18T07:05:18;97803.16;;;21.94;47.77
9281;BME280;4679;47.966;7.958;2022-07-18T07:07:19;97805.09;;;22.07;47.67
9281;BME280;4679;47.966;7.958;2022-07-18T07:09:21;97799.78;;;22.16;47.66
9281;BME280;4679;47.966;7.958;2022-07-18T07:11:23;97797.16;;;22.24;47.19
9281;BME280;4679;47.966;7.958;2022-07-18T07:13:26;97799.44;;;22.31;47.01
9281;BME280;4679;47.966;7.958;2022-07-18T07:15:28;97809.88;;;22.37;46.58
9281;BME280;4679;47.966;7.958;2022-07-18T07:17:30;97803.25;;;22.43;46.43
9281;BME280;4679;47.966;7.958;2022-07-18T07:19:32;97800.94;;;22.51;46.08
9281;BME280;4679;47.966;7.958;2022-07-18T07:21:33;97805.34;;;22.60;46.09
9281;BME280;4679;47.966;7.958;2022-07-18T07:23:35;97799.09;;;22.73;46.35
9281;BME280;4679;47.966;7.958;2022-07-18T07:25:37;97799.56;;;22.89;46.14
9281;BME280;4679;47.966;7.958;2022-07-18T07:27:39;97793.91;;;22.99;45.44
9281;BME280;4679;47.966;7.958;2022-07-18T07:29:43;97788.06;;;23.06;45.08
9281;BME280;4679;47.966;7.958;2022-07-18T07:31:45;97789.72;;;23.15;45.06
9281;BME280;4679;47.966;7.958;2022-07-18T07:33:46;97779.13;;;23.28;44.65
9281;BME280;4679;47.966;7.958;2022-07-18T07:35:48;97786.84;;;23.43;44.34
9281;BME280;4679;47.966;7.958;2022-07-18T07:37:51;97783.59;;;23.55;43.99
9281;BME280;4679;47.966;7.958;2022-07-18T07:39:53;97795.19;;;23.77;43.53
9281;BME280;4679;47.966;7.958;2022-07-18T07:41:55;97789.22;;;23.98;43.21
9281;BME280;4679;47.966;7.958;2022-07-18T07:43:57;97788.78;;;24.13;42.83
9281;BME280;4679;47.966;7.958;2022-07-18T07:46:00;97791.84;;;24.20;42.46
9281;BME280;4679;47.966;7.958;2022-07-18T07:48:02;97798.44;;;24.28;42.31
9281;BME280;4679;47.966;7.958;2022-07-18T07:50:05;97787.59;;;24.36;42.00
9281;BME280;4679;47.966;7.958;2022-07-18T07:52:07;97790.66;;;24.43;41.70
9281;BME280;4679;47.966;7.958;2022-07-18T07:54:11;97793.38;;;24.52;41.90
9281;BME280;4679;47.966;7.958;2022-07-18T07:56:13;97781.72;;;24.60;41.72
9281;BME280;4679;47.966;7.958;2022-07-18T07:58:19;97776.31;;;24.69;41.42
9281;BME280;4679;47.966;7.958;2022-07-18T08:00:21;97778.06;;;24.82;41.08
9281;BME280;4679;47.966;7.958;2022-07-18T08:02:24;97776.13;;;24.91;41.10
9281;BME280;4679;47.966;7.958;2022-07-18T08:04:25;97776.97;;;25.00;40.92
9281;BME280;4679;47.966;7.958;2022-07-18T08:06:27;97772.44;;;25.21;40.60
9281;BME280;4679;47.966;7.958;2022-07-18T08:08:29;97774.00;;;25.40;40.12
9281;BME280;4679;47.966;7.958;2022-07-18T08:10:31;97766.94;;;25.56;39.84
9281;BME280;4679;47.966;7.958;2022-07-18T08:12:33;97769.78;;;25.68;39.77
9281;BME280;4679;47.966;7.958;2022-07-18T08:14:35;97773.09;;;25.82;39.51
9281;BME280;4679;47.966;7.958;2022-07-18T08:16:40;97766.19;;;25.93;39.57
9281;BME280;4679;47.966;7.958;2022-07-18T08:18:43;97767.56;;;26.08;39.30
9281;BME280;4679;47.966;7.958;2022-07-18T08:20:45;97766.94;;;26.03;39.28
9281;BME280;4679;47.966;7.958;2022-07-18T08:22:54;97762.38;;;26.15;38.86
9281;BME280;4679;47.966;7.958;2022-07-18T08:24:56;97761.13;;;26.42;38.57
9281;BME280;4679;47.966;7.958;2022-07-18T08:26:58;97760.59;;;26.70;37.72
9281;BME280;4679;47.966;7.958;2022-07-18T08:29:00;97765.41;;;26.73;37.61
9281;BME280;4679;47.966;7.958;2022-07-18T08:31:01;97756.34;;;26.81;38.03
9281;BME280;4679;47.966;7.958;2022-07-18T08:33:03;97763.63;;;26.89;38.09
9281;BME280;4679;47.966;7.958;2022-07-18T08:35:07;97757.81;;;26.99;37.33
9281;BME280;4679;47.966;7.958;2022-07-18T08:37:09;97756.19;;;27.19;37.70
9281;BME280;4679;47.966;7.958;2022-07-18T08:39:11;97752.56;;;27.27;37.58
9281;BME280;4679;47.966;7.958;2022-07-18T08:41:13;97757.81;;;27.32;36.89
9281;BME280;4679;47.966;7.958;2022-07-18T08:43:17;97754.66;;;27.42;36.96
9281;BME280;4679;47.966;7.958;2022-07-18T08:45:20;97750.69;;;27.52;37.20
9281;BME280;4679;47.966;7.958;2022-07-18T08:47:22;97748.25;;;27.59;36.98
9281;BME280;4679;47.966;7.958;2022-07-18T08:49:25;97743.84;;;27.79;36.43
9281;BME280;4679;47.966;7.958;2022-07-18T08:51:28;97753.81;;;27.87;36.74
9281;BME280;4679;47.966;7.958;2022-07-18T08:53:30;97750.53;;;27.93;36.14
9281;BME280;4679;47.966;7.958;2022-07-18T08:55:34;97744.63;;;28.04;36.47
9281;BME280;4679;47.966;7.958;2022-07-18T08:57:36;97743.00;;;28.15;36.13
9281;BME280;4679;47.966;7.958;2022-07-18T08:59:38;97747.25;;;28.24;36.24
9281;BME280;4679;47.966;7.958;2022-07-18T09:01:40;97748.13;;;28.28;35.85
9281;BME280;4679;47.966;7.958;2022-07-18T09:03:41;97745.97;;;28.34;35.64
9281;BME280;4679;47.966;7.958;2022-07-18T09:05:43;97750.03;;;28.52;35.57
9281;BME280;4679;47.966;7.958;2022-07-18T09:07:47;97743.75;;;28.64;35.25
9281;BME280;4679;47.966;7.958;2022-07-18T09:09:52;97744.66;;;28.68;35.07
9281;BME280;4679;47.966;7.958;2022-07-18T09:11:55;97744.66;;;28.68;35.56
9281;BME280;4679;47.966;7.958;2022-07-18T09:13:57;97744.38;;;28.73;35.15
9281;BME280;4679;47.966;7.958;2022-07-18T09:16:00;97745.09;;;28.70;35.08
9281;BME280;4679;47.966;7.958;2022-07-18T09:18:02;97749.97;;;28.77;34.93
9281;BME280;4679;47.966;7.958;2022-07-18T09:20:06;97739.56;;;28.94;34.70
9281;BME280;4679;47.966;7.958;2022-07-18T09:22:17;97743.72;;;29.04;34.51
9281;BME280;4679;47.966;7.958;2022-07-18T09:24:20;97734.06;;;29.22;34.35
9281;BME280;4679;47.966;7.958;2022-07-18T09:26:38;97733.84;;;29.27;34.21
9281;BME280;4679;47.966;7.958;2022-07-18T09:28:48;97739.44;;;29.19;34.28
9281;BME280;4679;47.966;7.958;2022-07-18T09:30:50;97730.84;;;29.32;33.94
9281;BME280;4679;47.966;7.958;2022-07-18T09:32:54;97733.97;;;29.47;33.85
9281;BME280;4679;47.966;7.958;2022-07-18T09:35:04;97738.38;;;29.51;33.60
9281;BME280;4679;47.966;7.958;2022-07-18T09:37:10;97739.53;;;29.66;33.52
9281;BME280;4679;47.966;7.958;2022-07-18T09:39:20;97745.88;;;29.70;33.27
9281;BME280;4679;47.966;7.958;2022-07-18T09:41:23;97736.34;;;29.64;33.47
9281;BME280;4679;47.966;7.958;2022-07-18T09:43:25;97743.50;;;29.68;33.67
9281;BME280;4679;47.966;7.958;2022-07-18T09:45:30;97741.13;;;29.83;33.33
9281;BME280;4679;47.966;7.958;2022-07-18T09:47:32;97742.34;;;29.85;33.13
9281;BME280;4679;47.966;7.958;2022-07-18T09:49:33;97737.59;;;29.98;32.87
9281;BME280;4679;47.966;7.958;2022-07-18T09:51:36;97744.19;;;30.13;32.63
9281;BME280;4679;47.966;7.958;2022-07-18T09:53:40;97737.03;;;30.24;32.67
9281;BME280;4679;47.966;7.958;2022-07-18T09:55:46;97740.31;;;30.14;32.88
9281;BME280;4679;47.966;7.958;2022-07-18T09:57:57;97751.00;;;29.87;32.84
9281;BME280;4679;47.966;7.958;2022-07-18T09:59:59;97746.00;;;30.05;32.63
9281;BME280;4679;47.966;7.958;2022-07-18T10:02:02;97748.88;;;30.12;32.18
9281;BME280;4679;47.966;7.958;2022-07-18T10:04:04;97750.84;;;30.47;32.17
9281;BME280;4679;47.966;7.958;2022-07-18T10:06:06;97749.53;;;30.75;32.05
9281;BME280;4679;47.966;7.958;2022-07-18T10:08:10;97752.28;;;30.95;31.45
9281;BME280;4679;47.966;7.958;2022-07-18T10:10:13;97753.63;;;31.04;31.38
9281;BME280;4679;47.966;7.958;2022-07-18T10:12:18;97747.16;;;31.13;31.75
9281;BME280;4679;47.966;7.958;2022-07-18T10:14:20;97745.78;;;31.22;31.26
9281;BME280;4679;47.966;7.958;2022-07-18T10:16:22;97754.16;;;31.29;30.80
9281;BME280;4679;47.966;7.958;2022-07-18T10:18:26;97749.13;;;31.35;30.57
9281;BME280;4679;47.966;7.958;2022-07-18T10:20:31;97747.56;;;31.34;31.34
9281;BME280;4679;47.966;7.958;2022-07-18T10:22:35;97739.72;;;31.55;30.54
9281;BME280;4679;47.966;7.958;2022-07-18T10:24:38;97749.88;;;31.74;30.56
9281;BME280;4679;47.966;7.958;2022-07-18T10:26:41;97739.34;;;31.79;30.63
9281;BME280;4679;47.966;7.958;2022-07-18T10:29:12;97740.16;;;31.57;30.48
9281;BME280;4679;47.966;7.958;2022-07-18T10:31:16;97742.50;;;31.36;30.56
9281;BME280;4679;47.966;7.958;2022-07-18T10:33:39;97734.03;;;31.44;30.52
9281;BME280;4679;47.966;7.958;2022-07-18T10:36:03;97739.00;;;31.58;30.30
9281;BME280;4679;47.966;7.958;2022-07-18T10:38:19;97743.59;;;31.73;30.31
9281;BME280;4679;47.966;7.958;2022-07-18T10:40:23;97739.34;;;32.02;30.21
9281;BME280;4679;47.966;7.958;2022-07-18T10:42:26;97727.50;;;31.98;29.34
9281;BME280;4679;47.966;7.958;2022-07-18T10:44:34;97734.84;;;32.17;29.04
9281;BME280;4679;47.966;7.958;2022-07-18T10:47:03;97730.81;;;32.34;28.80
9281;BME280;4679;47.966;7.958;2022-07-18T10:49:05;97734.94;;;32.21;29.05
9281;BME280;4679;47.966;7.958;2022-07-18T10:51:08;97735.09;;;32.31;29.38
9281;BME280;4679;47.966;7.958;2022-07-18T10:53:10;97728.94;;;32.41;29.12
9281;BME280;4679;47.966;7.958;2022-07-18T10:55:28;97728.13;;;32.14;28.71
9281;BME280;4679;47.966;7.958;2022-07-18T10:57:30;97727.28;;;32.33;28.88
9281;BME280;4679;47.966;7.958;2022-07-18T10:59:33;97733.81;;;32.55;28.27
9281;BME280;4679;47.966;7.958;2022-07-18T11:01:36;97731.03;;;32.78;28.29
9281;BME280;4679;47.966;7.958;2022-07-18T11:03:38;97730.56;;;32.72;28.49
9281;BME280;4679;47.966;7.958;2022-07-18T11:05:43;97723.50;;;32.45;28.60
9281;BME280;4679;47.966;7.958;2022-07-18T11:08:17;97720.97;;;32.33;28.16
9281;BME280;4679;47.966;7.958;2022-07-18T11:13:22;97717.22;;;32.74;27.99
9281;BME280;4679;47.966;7.958;2022-07-18T11:15:53;97716.09;;;32.79;28.09
9281;BME280;4679;47.966;7.958;2022-07-18T11:18:00;97718.13;;;32.82;27.87
9281;BME280;4679;47.966;7.958;2022-07-18T11:20:26;97719.72;;;32.87;27.13
9281;BME280;4679;47.966;7.958;2022-07-18T11:22:28;97716.88;;;33.13;27.63
9281;BME280;4679;47.966;7.958;2022-07-18T11:24:30;97717.59;;;33.06;27.24
9281;BME280;4679;47.966;7.958;2022-07-18T11:26:33;97708.31;;;33.22;27.12
9281;BME280;4679;47.966;7.958;2022-07-18T11:28:35;97711.88;;;33.22;27.25
9281;BME280;4679;47.966;7.958;2022-07-18T11:30:39;97697.44;;;33.32;27.37
9281;BME280;4679;47.966;7.958;2022-07-18T11:32:41;97703.63;;;33.66;26.78
9281;BME280;4679;47.966;7.958;2022-07-18T11:34:49;97702.47;;;33.67;27.04
9281;BME280;4679;47.966;7.958;2022-07-18T11:36:51;97693.97;;;33.39;26.86
9281;BME280;4679;47.966;7.958;2022-07-18T11:38:55;97696.06;;;33.15;27.00
9281;BME280;4679;47.966;7.958;2022-07-18T11:40:57;97691.69;;;33.48;26.89
9281;BME280;4679;47.966;7.958;2022-07-18T11:42:59;97685.38;;;33.92;26.56
9281;BME280;4679;47.966;7.958;2022-07-18T11:45:00;97686.53;;;33.87;26.51
9281;BME280;4679;47.966;7.958;2022-07-18T11:47:05;97682.53;;;33.81;26.37
9281;BME280;4679;47.966;7.958;2022-07-18T11:49:08;97680.72;;;33.99;25.88
9281;BME280;4679;47.966;7.958;2022-07-18T11:51:10;97680.75;;;34.10;26.13
9281;BME280;4679;47.966;7.958;2022-07-18T11:53:14;97680.03;;;34.16;26.12
9281;BME280;4679;47.966;7.958;2022-07-18T11:55:15;97680.34;;;34.08;26.08
9281;BME280;4679;47.966;7.958;2022-07-18T11:57:26;97682.28;;;34.00;26.39
9281;BME280;4679;47.966;7.958;2022-07-18T11:59:38;97681.59;;;34.14;26.11
9281;BME280;4679;47.966;7.958;2022-07-18T12:01:41;97681.59;;;34.17;25.60
9281;BME280;4679;47.966;7.958;2022-07-18T12:03:47;97674.84;;;34.08;26.10
9281;BME280;4679;47.966;7.958;2022-07-18T12:05:51;97683.78;;;33.87;26.45
9281;BME280;4679;47.966;7.958;2022-07-18T12:07:53;97675.22;;;34.03;26.12
9281;BME280;4679;47.966;7.958;2022-07-18T12:09:55;97680.16;;;34.38;25.50
9281;BME280;4679;47.966;7.958;2022-07-18T12:12:07;97681.09;;;34.70;25.29
9281;BME280;4679;47.966;7.958;2022-07-18T12:14:13;97682.78;;;35.03;25.26
9281;BME280;4679;47.966;7.958;2022-07-18T12:16:33;97677.28;;;35.07;25.14
9281;BME280;4679;47.966;7.958;2022-07-18T12:18:35;97678.06;;;34.97;25.38
9281;BME280;4679;47.966;7.958;2022-07-18T12:20:38;97675.91;;;34.58;25.66
9281;BME280;4679;47.966;7.958;2022-07-18T12:23:07;97671.53;;;34.46;25.65
9281;BME280;4679;47.966;7.958;2022-07-18T12:25:11;97670.03;;;34.63;25.35
9281;BME280;4679;47.966;7.958;2022-07-18T12:27:16;97674.84;;;34.80;25.53
9281;BME280;4679;47.966;7.958;2022-07-18T12:29:18;97679.25;;;34.96;25.38
9281;BME280;4679;47.966;7.958;2022-07-18T12:31:37;97671.38;;;34.98;25.30
9281;BME280;4679;47.966;7.958;2022-07-18T12:33:39;97663.09;;;35.19;25.20
9281;BME280;4679;47.966;7.958;2022-07-18T12:35:54;97661.59;;;35.29;24.75
9281;BME280;4679;47.966;7.958;2022-07-18T12:37:58;97666.25;;;35.07;25.14
9281;BME280;4679;47.966;7.958;2022-07-18T12:40:01;97666.59;;;34.91;24.95
9281;BME280;4679;47.966;7.958;2022-07-18T12:42:06;97669.41;;;35.19;25.20
9281;BME280;4679;47.966;7.958;2022-07-18T12:44:13;97664.72;;;35.34;24.64
9281;BME280;4679;47.966;7.958;2022-07-18T12:46:15;97663.09;;;35.08;25.00
9281;BME280;4679;47.966;7.958;2022-07-18T12:48:17;97660.34;;;35.08;24.83
9281;BME280;4679;47.966;7.958;2022-07-18T12:50:19;97664.69;;;35.13;24.97
9281;BME280;4679;47.966;7.958;2022-07-18T12:52:23;97663.53;;;35.35;24.71
9281;BME280;4679;47.966;7.958;2022-07-18T12:54:24;97657.25;;;35.28;24.49
9281;BME280;4679;47.966;7.958;2022-07-18T12:56:26;97652.84;;;34.98;24.96
9281;BME280;4679;47.966;7.958;2022-07-18T12:58:28;97653.25;;;35.11;24.72
9281;BME280;4679;47.966;7.958;2022-07-18T13:00:30;97650.53;;;35.36;24.45
9281;BME280;4679;47.966;7.958;2022-07-18T13:02:32;97649.34;;;35.37;24.42
9281;BME280;4679;47.966;7.958;2022-07-18T13:04:34;97652.13;;;35.58;24.24
9281;BME280;4679;47.966;7.958;2022-07-18T13:06:36;97647.78;;;35.71;24.16
9281;BME280;4679;47.966;7.958;2022-07-18T13:08:40;97649.34;;;35.72;24.45
9281;BME280;4679;47.966;7.958;2022-07-18T13:10:42;97641.81;;;35.90;23.81
9281;BME280;4679;47.966;7.958;2022-07-18T13:12:44;97643.38;;;36.06;23.98
9281;BME280;4679;47.966;7.958;2022-07-18T13:14:45;97636.22;;;36.22;23.85
9281;BME280;4679;47.966;7.958;2022-07-18T13:16:47;97640.56;;;36.34;23.97
9281;BME280;4679;47.966;7.958;2022-07-18T13:18:50;97637.75;;;36.45;23.42
9281;BME280;4679;47.966;7.958;2022-07-18T13:20:51;97639.78;;;36.26;23.94
9281;BME280;4679;47.966;7.958;2022-07-18T13:22:53;97645.69;;;36.21;23.75
9281;BME280;4679;47.966;7.958;2022-07-18T13:24:56;97641.31;;;36.42;23.71
9281;BME280;4679;47.966;7.958;2022-07-18T13:26:59;97637.06;;;36.09;24.18
9281;BME280;4679;47.966;7.958;2022-07-18T13:29:00;97636.69;;;36.03;24.13
9281;BME280;4679;47.966;7.958;2022-07-18T13:31:03;97626.78;;;36.13;23.70
9281;BME280;4679;47.966;7.958;2022-07-18T13:33:04;97627.91;;;36.37;23.47
9281;BME280;4679;47.966;7.958;2022-07-18T13:35:07;97626.75;;;36.34;23.68
9281;BME280;4679;47.966;7.958;2022-07-18T13:37:09;97630.25;;;36.38;23.81
9281;BME280;4679;47.966;7.958;2022-07-18T13:39:10;97624.25;;;36.57;23.04
9281;BME280;4679;47.966;7.958;2022-07-18T13:41:14;97633.41;;;36.40;23.65
9281;BME280;4679;47.966;7.958;2022-07-18T13:43:16;97629.50;;;36.34;23.16
9281;BME280;4679;47.966;7.958;2022-07-18T13:45:17;97612.41;;;36.53;23.48
9281;BME280;4679;47.966;7.958;2022-07-18T13:47:19;97621.91;;;36.56;23.37
9281;BME280;4679;47.966;7.958;2022-07-18T13:49:21;97618.41;;;36.45;23.39
9281;BME280;4679;47.966;7.958;2022-07-18T13:51:22;97616.81;;;36.44;23.27
9281;BME280;4679;47.966;7.958;2022-07-18T13:53:24;97610.00;;;36.66;23.35
9281;BME280;4679;47.966;7.958;2022-07-18T13:55:26;97616.44;;;36.42;23.15
9281;BME280;4679;47.966;7.958;2022-07-18T13:57:29;97619.25;;;36.35;23.37
9281;BME280;4679;47.966;7.958;2022-07-18T13:59:31;97608.53;;;36.44;23.20
9281;BME280;4679;47.966;7.958;2022-07-18T14:01:33;97610.81;;;36.59;23.57
9281;BME280;4679;47.966;7.958;2022-07-18T14:03:35;97601.72;;;36.66;22.93
9281;BME280;4679;47.966;7.958;2022-07-18T14:05:38;97602.59;;;36.49;23.60
9281;BME280;4679;47.966;7.958;2022-07-18T14:07:41;97601.81;;;36.38;23.37
9281;BME280;4679;47.966;7.958;2022-07-18T14:09:43;97596.72;;;36.33;23.15
9281;BME280;4679;47.966;7.958;2022-07-18T14:11:44;97594.38;;;36.20;23.25
9281;BME280;4679;47.966;7.958;2022-07-18T14:13:47;97591.94;;;36.37;23.71
9281;BME280;4679;47.966;7.958;2022-07-18T14:15:49;97588.44;;;36.22;23.46
9281;BME280;4679;47.966;7.958;2022-07-18T14:17:51;97584.13;;;36.14;23.67
9281;BME280;4679;47.966;7.958;2022-07-18T14:19:53;97586.50;;;36.12;23.41
9281;BME280;4679;47.966;7.958;2022-07-18T14:21:55;97581.75;;;36.16;23.54
9281;BME280;4679;47.966;7.958;2022-07-18T14:23:56;97579.38;;;36.18;23.63
9281;BME280;4679;47.966;7.958;2022-07-18T14:25:58;97578.97;;;36.23;23.42
9281;BME280;4679;47.966;7.958;2022-07-18T14:28:00;97581.38;;;36.07;23.74
9281;BME280;4679;47.966;7.958;2022-07-18T14:30:05;97578.25;;;36.01;23.54
9281;BME280;4679;47.966;7.958;2022-07-18T14:32:07;97573.19;;;35.89;23.47
9281;BME280;4679;47.966;7.958;2022-07-18T14:34:09;97579.47;;;35.97;23.63
9281;BME280;4679;47.966;7.958;2022-07-18T14:36:11;97568.75;;;36.06;23.91
9281;BME280;4679;47.966;7.958;2022-07-18T14:38:13;97573.47;;;36.19;23.52
9281;BME280;4679;47.966;7.958;2022-07-18T14:40:15;97575.84;;;36.10;23.29
9281;BME280;4679;47.966;7.958;2022-07-18T14:42:16;97575.44;;;36.12;23.40
9281;BME280;4679;47.966;7.958;2022-07-18T14:44:18;97570.03;;;35.76;23.83
9281;BME280;4679;47.966;7.958;2022-07-18T14:46:21;97557.84;;;35.59;23.70
9281;BME280;4679;47.966;7.958;2022-07-18T14:48:23;97560.56;;;35.81;23.59
9281;BME280;4679;47.966;7.958;2022-07-18T14:50:25;97563.66;;;35.97;23.62
9281;BME280;4679;47.966;7.958;2022-07-18T14:52:27;97561.25;;;36.06;23.79
9281;BME280;4679;47.966;7.958;2022-07-18T14:54:29;97567.56;;;36.14;23.25
9281;BME280;4679;47.966;7.958;2022-07-18T14:56:31;97563.72;;;35.79;24.07
9281;BME280;4679;47.966;7.958;2022-07-18T14:58:33;97561.34;;;35.64;24.21
9281;BME280;4679;47.966;7.958;2022-07-18T15:00:34;97558.19;;;35.90;23.76
9281;BME280;4679;47.966;7.958;2022-07-18T15:02:38;97558.53;;;35.99;23.55
9281;BME280;4679;47.966;7.958;2022-07-18T15:04:41;97556.22;;;35.87;23.51
9281;BME280;4679;47.966;7.958;2022-07-18T15:06:44;97550.38;;;35.39;23.78
9281;BME280;4679;47.966;7.958;2022-07-18T15:08:46;97554.28;;;35.45;23.95
9281;BME280;4679;47.966;7.958;2022-07-18T15:10:47;97557.44;;;35.57;23.80
9281;BME280;4679;47.966;7.958;2022-07-18T15:12:49;97551.44;;;35.91;23.70
9281;BME280;4679;47.966;7.958;2022-07-18T15:14:51;97552.16;;;36.09;23.67
9281;BME280;4679;47.966;7.958;2022-07-18T15:16:54;97548.59;;;36.19;23.35
9281;BME280;4679;47.966;7.958;2022-07-18T15:18:57;97554.88;;;36.27;22.99
9281;BME280;4679;47.966;7.958;2022-07-18T15:20:59;97547.06;;;36.04;23.90
9281;BME280;4679;47.966;7.958;2022-07-18T15:23:01;97547.94;;;35.76;23.98
9281;BME280;4679;47.966;7.958;2022-07-18T15:25:03;97546.34;;;35.86;23.86
9281;BME280;4679;47.966;7.958;2022-07-18T15:27:05;97545.16;;;35.80;23.68
9281;BME280;4679;47.966;7.958;2022-07-18T15:29:07;97543.22;;;35.66;24.20
9281;BME280;4679;47.966;7.958;2022-07-18T15:31:09;97544.00;;;35.70;23.84
9281;BME280;4679;47.966;7.958;2022-07-18T15:33:10;97543.19;;;35.87;24.10
9281;BME280;4679;47.966;7.958;2022-07-18T15:35:13;97528.94;;;35.96;24.02
9281;BME280;4679;47.966;7.958;2022-07-18T15:37:15;97537.66;;;35.80;24.21
9281;BME280;4679;47.966;7.958;2022-07-18T15:39:17;97521.88;;;35.88;24.22
9281;BME280;4679;47.966;7.958;2022-07-18T15:41:19;97524.91;;;36.11;23.49
9281;BME280;4679;47.966;7.958;2022-07-18T15:43:22;97522.88;;;36.22;23.52
9281;BME280;4679;47.966;7.958;2022-07-18T15:45:24;97520.16;;;36.15;23.59
9281;BME280;4679;47.966;7.958;2022-07-18T15:47:25;97516.63;;;36.11;23.52
9281;BME280;4679;47.966;7.958;2022-07-18T15:49:27;97515.13;;;35.96;23.90
9281;BME280;4679;47.966;7.958;2022-07-18T15:51:30;97513.53;;;35.91;24.01
9281;BME280;4679;47.966;7.958;2022-07-18T15:53:32;97508.41;;;36.01;23.85
9281;BME280;4679;47.966;7.958;2022-07-18T15:55:34;97498.13;;;36.01;23.49
9281;BME280;4679;47.966;7.958;2022-07-18T15:57:36;97505.22;;;36.02;24.08
9281;BME280;4679;47.966;7.958;2022-07-18T15:59:37;97498.16;;;35.94;23.95
9281;BME280;4679;47.966;7.958;2022-07-18T16:01:39;97498.53;;;35.92;23.89
9281;BME280;4679;47.966;7.958;2022-07-18T16:03:42;97498.06;;;36.12;23.59
9281;BME280;4679;47.966;7.958;2022-07-18T16:05:43;97494.38;;;36.40;23.52
9281;BME280;4679;47.966;7.958;2022-07-18T16:07:46;97489.53;;;36.58;23.16
9281;BME280;4679;47.966;7.958;2022-07-18T16:09:48;97493.47;;;36.57;23.35
9281;BME280;4679;47.966;7.958;2022-07-18T16:11:50;97490.50;;;36.26;23.82
9281;BME280;4679;47.966;7.958;2022-07-18T16:13:52;97492.88;;;36.21;23.72
9281;BME280;4679;47.966;7.958;2022-07-18T16:15:53;97485.44;;;36.11;23.96
9281;BME280;4679;47.966;7.958;2022-07-18T16:17:55;97486.75;;;35.88;24.22
9281;BME280;4679;47.966;7.958;2022-07-18T16:19:57;97482.50;;;35.59;24.13
9281;BME280;4679;47.966;7.958;2022-07-18T16:21:59;97479.38;;;35.39;24.53
9281;BME280;4679;47.966;7.958;2022-07-18T16:24:04;97482.56;;;35.06;24.50
9281;BME280;4679;47.966;7.958;2022-07-18T16:26:06;97475.47;;;34.83;24.99
9281;BME280;4679;47.966;7.958;2022-07-18T16:28:07;97478.59;;;34.75;25.00
9281;BME280;4679;47.966;7.958;2022-07-18T16:30:10;97478.19;;;34.58;24.80
9281;BME280;4679;47.966;7.958;2022-07-18T16:32:12;97479.34;;;34.40;24.85
9281;BME280;4679;47.966;7.958;2022-07-18T16:34:14;97474.94;;;34.24;25.18
9281;BME280;4679;47.966;7.958;2022-07-18T16:36:16;97473.75;;;34.11;25.52
9281;BME280;4679;47.966;7.958;2022-07-18T16:38:18;97473.34;;;34.09;25.09
9281;BME280;4679;47.966;7.958;2022-07-18T16:40:21;97466.66;;;34.03;25.59
9281;BME280;4679;47.966;7.958;2022-07-18T16:42:24;97465.47;;;34.08;25.16
9281;BME280;4679;47.966;7.958;2022-07-18T16:44:26;97465.84;;;34.03;25.09
9281;BME280;4679;47.966;7.958;2022-07-18T16:46:28;97461.91;;;34.00;25.52
9281;BME280;4679;47.966;7.958;2022-07-18T16:48:30;97454.81;;;33.96;25.72
9281;BME280;4679;47.966;7.958;2022-07-18T16:50:33;97461.88;;;33.86;24.88
9281;BME280;4679;47.966;7.958;2022-07-18T16:52:37;97468.13;;;33.79;25.47
9281;BME280;4679;47.966;7.958;2022-07-18T16:54:39;97464.88;;;33.63;25.60
9281;BME280;4679;47.966;7.958;2022-07-18T16:56:43;97465.25;;;33.62;25.64
9281;BME280;4679;47.966;7.958;2022-07-18T16:58:45;97464.13;;;33.70;25.65
9281;BME280;4679;47.966;7.958;2022-07-18T17:00:47;97466.88;;;33.70;25.35
9281;BME280;4679;47.966;7.958;2022-07-18T17:02:50;97459.81;;;33.69;25.32
9281;BME280;4679;47.966;7.958;2022-07-18T17:04:52;97457.81;;;33.66;25.36
9281;BME280;4679;47.966;7.958;2022-07-18T17:06:54;97468.03;;;33.58;25.83
9281;BME280;4679;47.966;7.958;2022-07-18T17:08:56;97450.25;;;33.45;25.55
9281;BME280;4679;47.966;7.958;2022-07-18T17:10:58;97460.88;;;33.43;25.86
9281;BME280;4679;47.966;7.958;2022-07-18T17:13:02;97455.75;;;33.41;26.04
9281;BME280;4679;47.966;7.958;2022-07-18T17:15:04;97464.78;;;33.42;26.08
9281;BME280;4679;47.966;7.958;2022-07-18T17:17:07;97456.53;;;33.42;25.82
9281;BME280;4679;47.966;7.958;2022-07-18T17:19:09;97454.56;;;33.42;26.03
9281;BME280;4679;47.966;7.958;2022-07-18T17:21:12;97456.91;;;33.37;26.19
9281;BME280;4679;47.966;7.958;2022-07-18T17:23:15;97456.06;;;33.33;25.82